sensor_id;sensor_type;location;lat;lon;timestamp;P1;durP1;ratioP1;P2;durP2;ratioP2
11344;SDS011;5727;42.600;23.028;2023-02-07T00:01:05;11.95;;;10.00;;
11344;SDS011;5727;42.600;23.028;2023-02-07T00:03:33;11.40;;;8.80;;
11344;SDS011;5727;42.600;23.028;2023-02-07T00:06:05;10.45;;;9.35;;
11344;SDS011;5727;42.600;23.028;2023-02-07T00:08:32;12.38;;;8.90;;
11344;SDS011;5727;42.600;23.028;2023-02-07T00:11:02;15.95;;;10.80;;
11344;SDS011;5727;42.600;23.028;2023-02-07T00:13:30;14.13;;;9.70;;
11344;SDS011;5727;42.600;23.028;2023-02-07T00:15:56;9.43;;;8.48;;
11344;SDS011;5727;42.600;23.028;2023-02-07T00:18:23;10.20;;;9.20;;
11344;SDS011;5727;42.600;23.028;2023-02-07T00:20:56;12.30;;;9.75;;
11344;SDS011;5727;42.600;23.028;2023-02-07T00:23:24;10.68;;;9.15;;
11344;SDS011;5727;42.600;23.028;2023-02-07T00:25:51;10.73;;;9.40;;
11344;SDS011;5727;42.600;23.028;2023-02-07T00:28:18;9.88;;;8.80;;
11344;SDS011;5727;42.600;23.028;2023-02-07T00:30:45;10.13;;;9.02;;
11344;SDS011;5727;42.600;23.028;2023-02-07T00:33:12;10.23;;;9.18;;
11344;SDS011;5727;42.600;23.028;2023-02-07T00:35:38;12.23;;;9.43;;
11344;SDS011;5727;42.600;23.028;2023-02-07T00:38:05;10.77;;;9.32;;
11344;SDS011;5727;42.600;23.028;2023-02-07T00:40:34;10.18;;;8.57;;
11344;SDS011;5727;42.600;23.028;2023-02-07T00:43:00;9.73;;;8.73;;
11344;SDS011;5727;42.600;23.028;2023-02-07T00:45:27;11.48;;;8.73;;
11344;SDS011;5727;42.600;23.028;2023-02-07T00:47:54;9.18;;;8.23;;
11344;SDS011;5727;42.600;23.028;2023-02-07T00:50:20;10.60;;;8.57;;
11344;SDS011;5727;42.600;23.028;2023-02-07T00:52:47;10.02;;;8.63;;
11344;SDS011;5727;42.600;23.028;2023-02-07T00:55:14;9.85;;;8.85;;
11344;SDS011;5727;42.600;23.028;2023-02-07T00:57:42;9.95;;;8.95;;
11344;SDS011;5727;42.600;23.028;2023-02-07T01:00:09;9.40;;;8.32;;
11344;SDS011;5727;42.600;23.028;2023-02-07T01:02:36;10.00;;;9.10;;
11344;SDS011;5727;42.600;23.028;2023-02-07T01:05:03;11.43;;;9.10;;
11344;SDS011;5727;42.600;23.028;2023-02-07T01:07:30;9.23;;;8.43;;
11344;SDS011;5727;42.600;23.028;2023-02-07T01:09:59;8.90;;;8.10;;
11344;SDS011;5727;42.600;23.028;2023-02-07T01:12:25;10.63;;;9.03;;
11344;SDS011;5727;42.600;23.028;2023-02-07T01:14:53;10.60;;;9.10;;
11344;SDS011;5727;42.600;23.028;2023-02-07T01:17:20;10.03;;;9.03;;
11344;SDS011;5727;42.600;23.028;2023-02-07T01:19:47;9.77;;;8.77;;
11344;SDS011;5727;42.600;23.028;2023-02-07T01:22:14;10.17;;;8.67;;
11344;SDS011;5727;42.600;23.028;2023-02-07T01:24:41;12.47;;;9.70;;
11344;SDS011;5727;42.600;23.028;2023-02-07T01:27:08;9.67;;;8.70;;
11344;SDS011;5727;42.600;23.028;2023-02-07T01:29:36;10.77;;;8.93;;
11344;SDS011;5727;42.600;23.028;2023-02-07T01:32:04;11.73;;;9.17;;
11344;SDS011;5727;42.600;23.028;2023-02-07T01:34:31;9.77;;;8.77;;
11344;SDS011;5727;42.600;23.028;2023-02-07T01:36:57;10.52;;;9.43;;
11344;SDS011;5727;42.600;23.028;2023-02-07T01:39:24;9.98;;;8.98;;
11344;SDS011;5727;42.600;23.028;2023-02-07T01:41:51;11.98;;;9.40;;
11344;SDS011;5727;42.600;23.028;2023-02-07T01:47:25;10.50;;;8.70;;
11344;SDS011;5727;42.600;23.028;2023-02-07T01:49:54;10.07;;;9.07;;
11344;SDS011;5727;42.600;23.028;2023-02-07T01:52:25;10.50;;;8.67;;
11344;SDS011;5727;42.600;23.028;2023-02-07T01:54:57;12.13;;;9.18;;
11344;SDS011;5727;42.600;23.028;2023-02-07T01:57:27;11.83;;;10.07;;
11344;SDS011;5727;42.600;23.028;2023-02-07T01:59:54;10.70;;;8.70;;
11344;SDS011;5727;42.600;23.028;2023-02-07T02:02:23;11.63;;;8.97;;
11344;SDS011;5727;42.600;23.028;2023-02-07T02:04:53;11.00;;;8.70;;
11344;SDS011;5727;42.600;23.028;2023-02-07T02:07:21;10.70;;;9.53;;
11344;SDS011;5727;42.600;23.028;2023-02-07T02:09:49;12.43;;;10.10;;
11344;SDS011;5727;42.600;23.028;2023-02-07T02:12:30;10.50;;;9.23;;
11344;SDS011;5727;42.600;23.028;2023-02-07T02:15:13;11.00;;;9.00;;
11344;SDS011;5727;42.600;23.028;2023-02-07T02:17:52;9.57;;;8.63;;
11344;SDS011;5727;42.600;23.028;2023-02-07T02:23:42;9.85;;;8.85;;
11344;SDS011;5727;42.600;23.028;2023-02-07T02:26:35;9.75;;;8.05;;
11344;SDS011;5727;42.600;23.028;2023-02-07T02:29:24;10.93;;;8.97;;
11344;SDS011;5727;42.600;23.028;2023-02-07T02:35:11;12.67;;;8.60;;
11344;SDS011;5727;42.600;23.028;2023-02-07T02:37:44;9.27;;;8.23;;
11344;SDS011;5727;42.600;23.028;2023-02-07T02:40:19;9.20;;;8.20;;
11344;SDS011;5727;42.600;23.028;2023-02-07T02:42:49;9.83;;;8.60;;
11344;SDS011;5727;42.600;23.028;2023-02-07T02:45:23;10.60;;;9.50;;
11344;SDS011;5727;42.600;23.028;2023-02-07T02:47:56;9.88;;;8.30;;
11344;SDS011;5727;42.600;23.028;2023-02-07T02:50:25;12.37;;;8.93;;
11344;SDS011;5727;42.600;23.028;2023-02-07T02:52:54;10.23;;;9.00;;
11344;SDS011;5727;42.600;23.028;2023-02-07T02:55:22;12.40;;;8.93;;
11344;SDS011;5727;42.600;23.028;2023-02-07T02:58:04;8.18;;;7.43;;
11344;SDS011;5727;42.600;23.028;2023-02-07T03:00:40;11.75;;;8.60;;
11344;SDS011;5727;42.600;23.028;2023-02-07T03:03:20;9.70;;;8.18;;
11344;SDS011;5727;42.600;23.028;2023-02-07T03:06:03;9.45;;;8.65;;
11344;SDS011;5727;42.600;23.028;2023-02-07T03:08:40;8.88;;;8.18;;
11344;SDS011;5727;42.600;23.028;2023-02-07T03:11:14;11.75;;;8.63;;
11344;SDS011;5727;42.600;23.028;2023-02-07T03:13:49;11.25;;;8.45;;
11344;SDS011;5727;42.600;23.028;2023-02-07T03:16:27;9.32;;;8.27;;
11344;SDS011;5727;42.600;23.028;2023-02-07T03:19:02;9.38;;;8.13;;
11344;SDS011;5727;42.600;23.028;2023-02-07T03:21:33;8.52;;;7.68;;
11344;SDS011;5727;42.600;23.028;2023-02-07T03:24:03;10.23;;;8.48;;
11344;SDS011;5727;42.600;23.028;2023-02-07T03:26:33;8.90;;;8.00;;
11344;SDS011;5727;42.600;23.028;2023-02-07T03:29:01;9.27;;;8.35;;
11344;SDS011;5727;42.600;23.028;2023-02-07T03:31:31;8.80;;;7.90;;
11344;SDS011;5727;42.600;23.028;2023-02-07T03:34:05;10.30;;;8.57;;
11344;SDS011;5727;42.600;23.028;2023-02-07T03:36:36;11.85;;;9.23;;
11344;SDS011;5727;42.600;23.028;2023-02-07T03:39:07;10.38;;;9.20;;
11344;SDS011;5727;42.600;23.028;2023-02-07T03:41:34;9.32;;;8.32;;
11344;SDS011;5727;42.600;23.028;2023-02-07T03:44:06;10.35;;;9.10;;
11344;SDS011;5727;42.600;23.028;2023-02-07T03:46:36;10.38;;;9.30;;
11344;SDS011;5727;42.600;23.028;2023-02-07T03:49:04;9.88;;;8.55;;
11344;SDS011;5727;42.600;23.028;2023-02-07T03:51:32;10.73;;;8.60;;
11344;SDS011;5727;42.600;23.028;2023-02-07T03:53:59;11.50;;;8.80;;
11344;SDS011;5727;42.600;23.028;2023-02-07T03:56:26;9.90;;;8.48;;
11344;SDS011;5727;42.600;23.028;2023-02-07T03:58:53;14.90;;;9.48;;
11344;SDS011;5727;42.600;23.028;2023-02-07T04:01:20;12.48;;;10.00;;
11344;SDS011;5727;42.600;23.028;2023-02-07T04:04:06;10.50;;;8.93;;
11344;SDS011;5727;42.600;23.028;2023-02-07T04:06:33;14.20;;;9.25;;
11344;SDS011;5727;42.600;23.028;2023-02-07T04:09:00;11.80;;;10.52;;
11344;SDS011;5727;42.600;23.028;2023-02-07T04:11:27;11.00;;;9.38;;
11344;SDS011;5727;42.600;23.028;2023-02-07T04:13:54;10.07;;;8.88;;
11344;SDS011;5727;42.600;23.028;2023-02-07T04:16:21;10.15;;;8.90;;
11344;SDS011;5727;42.600;23.028;2023-02-07T04:18:48;9.90;;;8.90;;
11344;SDS011;5727;42.600;23.028;2023-02-07T04:21:16;9.68;;;8.73;;
11344;SDS011;5727;42.600;23.028;2023-02-07T04:23:42;11.57;;;9.65;;
11344;SDS011;5727;42.600;23.028;2023-02-07T04:26:09;9.77;;;8.77;;
11344;SDS011;5727;42.600;23.028;2023-02-07T04:28:36;12.68;;;9.23;;
11344;SDS011;5727;42.600;23.028;2023-02-07T04:31:03;11.60;;;8.88;;
11344;SDS011;5727;42.600;23.028;2023-02-07T04:33:30;10.20;;;9.02;;
11344;SDS011;5727;42.600;23.028;2023-02-07T04:35:57;11.23;;;9.60;;
11344;SDS011;5727;42.600;23.028;2023-02-07T04:38:26;11.70;;;9.20;;
11344;SDS011;5727;42.600;23.028;2023-02-07T04:40:56;12.18;;;9.82;;
11344;SDS011;5727;42.600;23.028;2023-02-07T04:43:23;11.13;;;9.82;;
11344;SDS011;5727;42.600;23.028;2023-02-07T04:45:50;9.88;;;8.88;;
11344;SDS011;5727;42.600;23.028;2023-02-07T04:48:17;10.95;;;9.38;;
11344;SDS011;5727;42.600;23.028;2023-02-07T04:50:43;10.70;;;9.20;;
11344;SDS011;5727;42.600;23.028;2023-02-07T04:53:10;11.43;;;9.45;;
11344;SDS011;5727;42.600;23.028;2023-02-07T04:55:38;11.18;;;9.02;;
11344;SDS011;5727;42.600;23.028;2023-02-07T04:58:05;11.02;;;9.05;;
11344;SDS011;5727;42.600;23.028;2023-02-07T05:00:32;12.75;;;10.20;;
11344;SDS011;5727;42.600;23.028;2023-02-07T05:03:00;12.25;;;10.60;;
11344;SDS011;5727;42.600;23.028;2023-02-07T05:05:26;12.98;;;10.07;;
11344;SDS011;5727;42.600;23.028;2023-02-07T05:07:53;13.27;;;9.40;;
11344;SDS011;5727;42.600;23.028;2023-02-07T05:10:20;12.23;;;9.25;;
11344;SDS011;5727;42.600;23.028;2023-02-07T05:12:48;10.70;;;9.60;;
11344;SDS011;5727;42.600;23.028;2023-02-07T05:15:15;10.38;;;9.27;;
11344;SDS011;5727;42.600;23.028;2023-02-07T05:17:42;11.52;;;10.18;;
11344;SDS011;5727;42.600;23.028;2023-02-07T05:20:09;10.43;;;9.45;;
11344;SDS011;5727;42.600;23.028;2023-02-07T05:22:36;10.40;;;9.40;;
11344;SDS011;5727;42.600;23.028;2023-02-07T05:25:03;14.90;;;10.45;;
11344;SDS011;5727;42.600;23.028;2023-02-07T05:27:30;10.82;;;9.68;;
11344;SDS011;5727;42.600;23.028;2023-02-07T05:29:59;10.68;;;9.57;;
11344;SDS011;5727;42.600;23.028;2023-02-07T05:32:26;12.50;;;10.30;;
11344;SDS011;5727;42.600;23.028;2023-02-07T05:35:10;11.57;;;9.18;;
11344;SDS011;5727;42.600;23.028;2023-02-07T05:37:37;11.75;;;9.60;;
11344;SDS011;5727;42.600;23.028;2023-02-07T05:40:04;11.25;;;9.60;;
11344;SDS011;5727;42.600;23.028;2023-02-07T05:42:31;11.88;;;10.15;;
11344;SDS011;5727;42.600;23.028;2023-02-07T05:44:59;11.00;;;9.40;;
11344;SDS011;5727;42.600;23.028;2023-02-07T05:47:26;13.50;;;9.90;;
11344;SDS011;5727;42.600;23.028;2023-02-07T05:49:53;11.88;;;10.10;;
11344;SDS011;5727;42.600;23.028;2023-02-07T05:52:20;12.77;;;10.75;;
11344;SDS011;5727;42.600;23.028;2023-02-07T05:54:46;11.63;;;10.38;;
11344;SDS011;5727;42.600;23.028;2023-02-07T05:57:13;13.65;;;10.90;;
11344;SDS011;5727;42.600;23.028;2023-02-07T05:59:40;15.05;;;11.50;;
11344;SDS011;5727;42.600;23.028;2023-02-07T06:02:08;11.85;;;10.55;;
11344;SDS011;5727;42.600;23.028;2023-02-07T06:04:35;15.93;;;12.70;;
11344;SDS011;5727;42.600;23.028;2023-02-07T06:07:01;15.27;;;11.43;;
11344;SDS011;5727;42.600;23.028;2023-02-07T06:09:29;16.50;;;11.90;;
11344;SDS011;5727;42.600;23.028;2023-02-07T06:11:56;14.37;;;11.17;;
11344;SDS011;5727;42.600;23.028;2023-02-07T06:14:22;12.63;;;10.27;;
11344;SDS011;5727;42.600;23.028;2023-02-07T06:16:49;14.55;;;11.23;;
11344;SDS011;5727;42.600;23.028;2023-02-07T06:19:17;15.02;;;10.77;;
11344;SDS011;5727;42.600;23.028;2023-02-07T06:21:44;14.65;;;10.55;;
11344;SDS011;5727;42.600;23.028;2023-02-07T06:24:11;16.50;;;12.23;;
11344;SDS011;5727;42.600;23.028;2023-02-07T06:26:38;14.82;;;11.77;;
11344;SDS011;5727;42.600;23.028;2023-02-07T06:29:04;16.00;;;11.80;;
11344;SDS011;5727;42.600;23.028;2023-02-07T06:31:31;12.27;;;10.53;;
11344;SDS011;5727;42.600;23.028;2023-02-07T06:33:58;14.13;;;10.82;;
11344;SDS011;5727;42.600;23.028;2023-02-07T06:36:26;14.55;;;11.25;;
11344;SDS011;5727;42.600;23.028;2023-02-07T06:38:53;11.80;;;9.97;;
11344;SDS011;5727;42.600;23.028;2023-02-07T06:41:19;11.68;;;9.40;;
11344;SDS011;5727;42.600;23.028;2023-02-07T06:43:46;11.48;;;10.27;;
11344;SDS011;5727;42.600;23.028;2023-02-07T06:46:13;13.02;;;10.55;;
11344;SDS011;5727;42.600;23.028;2023-02-07T06:48:40;11.45;;;10.23;;
11344;SDS011;5727;42.600;23.028;2023-02-07T06:51:07;10.35;;;9.38;;
11344;SDS011;5727;42.600;23.028;2023-02-07T06:53:35;13.90;;;10.27;;
11344;SDS011;5727;42.600;23.028;2023-02-07T06:56:02;12.55;;;9.27;;
11344;SDS011;5727;42.600;23.028;2023-02-07T06:58:29;13.93;;;11.05;;
11344;SDS011;5727;42.600;23.028;2023-02-07T07:00:55;11.15;;;10.02;;
11344;SDS011;5727;42.600;23.028;2023-02-07T07:03:22;11.07;;;9.98;;
11344;SDS011;5727;42.600;23.028;2023-02-07T07:05:52;11.63;;;10.40;;
11344;SDS011;5727;42.600;23.028;2023-02-07T07:08:19;11.70;;;9.73;;
11344;SDS011;5727;42.600;23.028;2023-02-07T07:10:47;15.40;;;10.53;;
11344;SDS011;5727;42.600;23.028;2023-02-07T07:13:14;12.95;;;10.32;;
11344;SDS011;5727;42.600;23.028;2023-02-07T07:15:41;12.00;;;10.27;;
11344;SDS011;5727;42.600;23.028;2023-02-07T07:18:08;15.67;;;11.50;;
11344;SDS011;5727;42.600;23.028;2023-02-07T07:20:35;10.20;;;9.20;;
11344;SDS011;5727;42.600;23.028;2023-02-07T07:23:02;13.60;;;11.13;;
11344;SDS011;5727;42.600;23.028;2023-02-07T07:25:29;15.17;;;11.97;;
11344;SDS011;5727;42.600;23.028;2023-02-07T07:27:57;21.48;;;15.80;;
11344;SDS011;5727;42.600;23.028;2023-02-07T07:30:24;16.60;;;13.73;;
11344;SDS011;5727;42.600;23.028;2023-02-07T07:32:51;12.43;;;10.03;;
11344;SDS011;5727;42.600;23.028;2023-02-07T07:35:17;10.80;;;9.13;;
11344;SDS011;5727;42.600;23.028;2023-02-07T07:37:44;15.75;;;11.02;;
11344;SDS011;5727;42.600;23.028;2023-02-07T07:40:11;23.67;;;15.13;;
11344;SDS011;5727;42.600;23.028;2023-02-07T07:42:38;13.53;;;11.03;;
11344;SDS011;5727;42.600;23.028;2023-02-07T07:45:06;21.60;;;13.87;;
11344;SDS011;5727;42.600;23.028;2023-02-07T07:47:35;16.10;;;12.13;;
11344;SDS011;5727;42.600;23.028;2023-02-07T07:50:01;11.77;;;10.27;;
11344;SDS011;5727;42.600;23.028;2023-02-07T07:52:28;11.10;;;10.00;;
11344;SDS011;5727;42.600;23.028;2023-02-07T07:54:55;11.90;;;9.77;;
11344;SDS011;5727;42.600;23.028;2023-02-07T07:57:22;11.20;;;9.30;;
11344;SDS011;5727;42.600;23.028;2023-02-07T07:59:52;11.97;;;10.77;;
11344;SDS011;5727;42.600;23.028;2023-02-07T08:02:20;15.27;;;11.27;;
11344;SDS011;5727;42.600;23.028;2023-02-07T08:04:48;15.53;;;13.03;;
11344;SDS011;5727;42.600;23.028;2023-02-07T08:07:15;13.57;;;10.60;;
11344;SDS011;5727;42.600;23.028;2023-02-07T08:09:42;12.27;;;10.93;;
11344;SDS011;5727;42.600;23.028;2023-02-07T08:12:08;14.77;;;11.20;;
11344;SDS011;5727;42.600;23.028;2023-02-07T08:14:35;13.37;;;11.07;;
11344;SDS011;5727;42.600;23.028;2023-02-07T08:17:02;12.93;;;10.33;;
11344;SDS011;5727;42.600;23.028;2023-02-07T08:19:30;12.50;;;9.73;;
11344;SDS011;5727;42.600;23.028;2023-02-07T08:21:57;10.60;;;9.07;;
11344;SDS011;5727;42.600;23.028;2023-02-07T08:24:24;11.43;;;10.17;;
11344;SDS011;5727;42.600;23.028;2023-02-07T08:26:52;14.00;;;10.77;;
11344;SDS011;5727;42.600;23.028;2023-02-07T08:29:19;15.47;;;11.67;;
11344;SDS011;5727;42.600;23.028;2023-02-07T08:31:45;11.07;;;9.50;;
11344;SDS011;5727;42.600;23.028;2023-02-07T08:34:13;10.07;;;8.80;;
11344;SDS011;5727;42.600;23.028;2023-02-07T08:36:41;11.17;;;9.20;;
11344;SDS011;5727;42.600;23.028;2023-02-07T08:39:08;10.03;;;8.93;;
11344;SDS011;5727;42.600;23.028;2023-02-07T08:41:35;10.83;;;9.27;;
11344;SDS011;5727;42.600;23.028;2023-02-07T08:44:01;13.07;;;9.77;;
11344;SDS011;5727;42.600;23.028;2023-02-07T08:46:28;10.27;;;9.37;;
11344;SDS011;5727;42.600;23.028;2023-02-07T08:48:55;9.67;;;8.57;;
11344;SDS011;5727;42.600;23.028;2023-02-07T08:51:22;9.27;;;8.27;;
11344;SDS011;5727;42.600;23.028;2023-02-07T08:53:50;10.87;;;8.40;;
11344;SDS011;5727;42.600;23.028;2023-02-07T08:56:18;10.77;;;9.63;;
11344;SDS011;5727;42.600;23.028;2023-02-07T08:58:44;9.30;;;8.30;;
11344;SDS011;5727;42.600;23.028;2023-02-07T09:01:11;9.93;;;8.83;;
11344;SDS011;5727;42.600;23.028;2023-02-07T09:03:38;10.07;;;9.07;;
11344;SDS011;5727;42.600;23.028;2023-02-07T09:06:05;10.63;;;9.53;;
11344;SDS011;5727;42.600;23.028;2023-02-07T09:08:32;10.07;;;9.13;;
11344;SDS011;5727;42.600;23.028;2023-02-07T09:11:00;9.60;;;8.60;;
11344;SDS011;5727;42.600;23.028;2023-02-07T09:13:27;10.77;;;9.30;;
11344;SDS011;5727;42.600;23.028;2023-02-07T09:15:54;12.80;;;10.00;;
11344;SDS011;5727;42.600;23.028;2023-02-07T09:18:22;11.27;;;9.63;;
11344;SDS011;5727;42.600;23.028;2023-02-07T09:20:49;10.87;;;9.73;;
11344;SDS011;5727;42.600;23.028;2023-02-07T09:23:16;10.93;;;9.83;;
11344;SDS011;5727;42.600;23.028;2023-02-07T09:25:43;12.27;;;10.30;;
11344;SDS011;5727;42.600;23.028;2023-02-07T09:28:12;11.50;;;9.37;;
11344;SDS011;5727;42.600;23.028;2023-02-07T09:30:39;9.67;;;8.57;;
11344;SDS011;5727;42.600;23.028;2023-02-07T09:33:07;11.60;;;9.67;;
11344;SDS011;5727;42.600;23.028;2023-02-07T09:35:37;11.73;;;9.77;;
11344;SDS011;5727;42.600;23.028;2023-02-07T09:38:05;8.70;;;7.67;;
11344;SDS011;5727;42.600;23.028;2023-02-07T09:40:33;10.30;;;8.37;;
11344;SDS011;5727;42.600;23.028;2023-02-07T09:43:02;9.73;;;8.10;;
11344;SDS011;5727;42.600;23.028;2023-02-07T09:45:39;10.00;;;8.23;;
11344;SDS011;5727;42.600;23.028;2023-02-07T09:48:11;8.83;;;8.03;;
11344;SDS011;5727;42.600;23.028;2023-02-07T09:50:43;10.83;;;8.67;;
11344;SDS011;5727;42.600;23.028;2023-02-07T09:53:16;9.00;;;8.20;;
11344;SDS011;5727;42.600;23.028;2023-02-07T09:55:48;9.77;;;8.77;;
11344;SDS011;5727;42.600;23.028;2023-02-07T09:58:18;9.83;;;8.70;;
11344;SDS011;5727;42.600;23.028;2023-02-07T10:00:55;18.20;;;9.37;;
11344;SDS011;5727;42.600;23.028;2023-02-07T10:03:26;9.67;;;8.67;;
11344;SDS011;5727;42.600;23.028;2023-02-07T10:05:54;8.90;;;8.00;;
11344;SDS011;5727;42.600;23.028;2023-02-07T10:08:24;12.27;;;9.63;;
11344;SDS011;5727;42.600;23.028;2023-02-07T10:11:04;9.60;;;8.47;;
11344;SDS011;5727;42.600;23.028;2023-02-07T10:13:49;10.37;;;8.87;;
11344;SDS011;5727;42.600;23.028;2023-02-07T10:19:32;8.90;;;7.97;;
11344;SDS011;5727;42.600;23.028;2023-02-07T10:22:10;9.87;;;8.57;;
11344;SDS011;5727;42.600;23.028;2023-02-07T10:24:50;9.47;;;8.47;;
11344;SDS011;5727;42.600;23.028;2023-02-07T10:27:39;11.40;;;10.10;;
11344;SDS011;5727;42.600;23.028;2023-02-07T10:30:14;13.67;;;9.20;;
11344;SDS011;5727;42.600;23.028;2023-02-07T10:32:42;9.87;;;8.50;;
11344;SDS011;5727;42.600;23.028;2023-02-07T10:35:13;9.50;;;8.27;;
11344;SDS011;5727;42.600;23.028;2023-02-07T10:37:44;10.07;;;9.10;;
11344;SDS011;5727;42.600;23.028;2023-02-07T10:40:14;10.07;;;9.07;;
11344;SDS011;5727;42.600;23.028;2023-02-07T10:42:45;11.10;;;8.97;;
11344;SDS011;5727;42.600;23.028;2023-02-07T10:45:15;13.13;;;9.33;;
11344;SDS011;5727;42.600;23.028;2023-02-07T10:47:45;12.20;;;9.97;;
11344;SDS011;5727;42.600;23.028;2023-02-07T10:50:13;9.53;;;8.50;;
11344;SDS011;5727;42.600;23.028;2023-02-07T10:52:45;11.20;;;9.40;;
11344;SDS011;5727;42.600;23.028;2023-02-07T10:55:16;9.27;;;8.33;;
11344;SDS011;5727;42.600;23.028;2023-02-07T10:57:50;11.73;;;9.07;;
11344;SDS011;5727;42.600;23.028;2023-02-07T11:00:21;10.63;;;8.40;;
11344;SDS011;5727;42.600;23.028;2023-02-07T11:02:51;12.97;;;9.47;;
11344;SDS011;5727;42.600;23.028;2023-02-07T11:05:30;13.73;;;10.97;;
11344;SDS011;5727;42.600;23.028;2023-02-07T11:08:00;12.97;;;10.93;;
11344;SDS011;5727;42.600;23.028;2023-02-07T11:10:29;15.67;;;10.67;;
11344;SDS011;5727;42.600;23.028;2023-02-07T11:12:59;15.40;;;11.00;;
11344;SDS011;5727;42.600;23.028;2023-02-07T11:15:30;15.20;;;11.63;;
11344;SDS011;5727;42.600;23.028;2023-02-07T11:18:03;13.57;;;10.60;;
11344;SDS011;5727;42.600;23.028;2023-02-07T11:20:33;13.00;;;10.67;;
11344;SDS011;5727;42.600;23.028;2023-02-07T11:23:02;12.17;;;8.97;;
11344;SDS011;5727;42.600;23.028;2023-02-07T11:25:37;9.47;;;8.07;;
11344;SDS011;5727;42.600;23.028;2023-02-07T11:28:06;10.57;;;8.27;;
11344;SDS011;5727;42.600;23.028;2023-02-07T11:30:40;14.53;;;9.00;;
11344;SDS011;5727;42.600;23.028;2023-02-07T11:33:14;10.00;;;9.00;;
11344;SDS011;5727;42.600;23.028;2023-02-07T11:36:05;9.87;;;8.83;;
11344;SDS011;5727;42.600;23.028;2023-02-07T11:38:37;10.10;;;8.57;;
11344;SDS011;5727;42.600;23.028;2023-02-07T11:41:05;9.13;;;8.23;;
11344;SDS011;5727;42.600;23.028;2023-02-07T11:43:41;12.70;;;9.90;;
11344;SDS011;5727;42.600;23.028;2023-02-07T11:46:17;10.93;;;8.90;;
11344;SDS011;5727;42.600;23.028;2023-02-07T11:48:47;9.30;;;8.20;;
11344;SDS011;5727;42.600;23.028;2023-02-07T11:51:17;11.57;;;9.50;;
11344;SDS011;5727;42.600;23.028;2023-02-07T11:53:45;9.07;;;8.07;;
11344;SDS011;5727;42.600;23.028;2023-02-07T11:56:22;9.07;;;7.73;;
11344;SDS011;5727;42.600;23.028;2023-02-07T11:58:50;9.23;;;8.10;;
11344;SDS011;5727;42.600;23.028;2023-02-07T12:01:20;9.57;;;8.07;;
11344;SDS011;5727;42.600;23.028;2023-02-07T12:03:53;10.37;;;8.07;;
11344;SDS011;5727;42.600;23.028;2023-02-07T12:06:25;9.47;;;7.53;;
11344;SDS011;5727;42.600;23.028;2023-02-07T12:08:58;8.73;;;7.97;;
11344;SDS011;5727;42.600;23.028;2023-02-07T12:11:27;8.23;;;7.37;;
11344;SDS011;5727;42.600;23.028;2023-02-07T12:14:02;9.93;;;8.60;;
11344;SDS011;5727;42.600;23.028;2023-02-07T12:16:37;9.53;;;8.27;;
11344;SDS011;5727;42.600;23.028;2023-02-07T12:19:09;8.70;;;7.83;;
11344;SDS011;5727;42.600;23.028;2023-02-07T12:21:43;9.03;;;8.10;;
11344;SDS011;5727;42.600;23.028;2023-02-07T12:24:19;10.00;;;9.00;;
11344;SDS011;5727;42.600;23.028;2023-02-07T12:26:51;8.77;;;7.87;;
11344;SDS011;5727;42.600;23.028;2023-02-07T12:29:24;8.93;;;7.90;;
11344;SDS011;5727;42.600;23.028;2023-02-07T12:32:00;7.77;;;7.07;;
11344;SDS011;5727;42.600;23.028;2023-02-07T12:34:36;7.43;;;6.73;;
11344;SDS011;5727;42.600;23.028;2023-02-07T12:37:12;10.43;;;8.37;;
11344;SDS011;5727;42.600;23.028;2023-02-07T12:39:47;9.43;;;7.60;;
11344;SDS011;5727;42.600;23.028;2023-02-07T12:42:23;8.97;;;7.50;;
11344;SDS011;5727;42.600;23.028;2023-02-07T12:44:58;8.57;;;7.67;;
11344;SDS011;5727;42.600;23.028;2023-02-07T12:47:29;7.80;;;7.00;;
11344;SDS011;5727;42.600;23.028;2023-02-07T12:50:14;11.97;;;8.83;;
11344;SDS011;5727;42.600;23.028;2023-02-07T12:52:52;7.37;;;6.77;;
11344;SDS011;5727;42.600;23.028;2023-02-07T12:55:33;8.50;;;7.70;;
11344;SDS011;5727;42.600;23.028;2023-02-07T12:58:22;9.17;;;8.03;;
11344;SDS011;5727;42.600;23.028;2023-02-07T13:00:57;7.40;;;6.70;;
11344;SDS011;5727;42.600;23.028;2023-02-07T13:03:35;10.07;;;7.47;;
11344;SDS011;5727;42.600;23.028;2023-02-07T13:06:22;7.83;;;7.13;;
11344;SDS011;5727;42.600;23.028;2023-02-07T13:09:02;7.53;;;6.93;;
11344;SDS011;5727;42.600;23.028;2023-02-07T13:11:36;7.67;;;6.97;;
11344;SDS011;5727;42.600;23.028;2023-02-07T13:14:15;8.13;;;7.43;;
11344;SDS011;5727;42.600;23.028;2023-02-07T13:16:50;8.23;;;7.43;;
11344;SDS011;5727;42.600;23.028;2023-02-07T13:19:30;8.30;;;7.57;;
11344;SDS011;5727;42.600;23.028;2023-02-07T13:22:05;7.67;;;6.97;;
11344;SDS011;5727;42.600;23.028;2023-02-07T13:24:37;7.63;;;7.00;;
11344;SDS011;5727;42.600;23.028;2023-02-07T13:27:10;8.60;;;7.50;;
11344;SDS011;5727;42.600;23.028;2023-02-07T13:29:41;10.10;;;7.97;;
11344;SDS011;5727;42.600;23.028;2023-02-07T13:32:12;10.57;;;7.63;;
11344;SDS011;5727;42.600;23.028;2023-02-07T13:34:45;10.23;;;8.23;;
11344;SDS011;5727;42.600;23.028;2023-02-07T13:37:17;9.33;;;7.90;;
11344;SDS011;5727;42.600;23.028;2023-02-07T13:39:50;8.07;;;7.27;;
11344;SDS011;5727;42.600;23.028;2023-02-07T13:42:25;8.37;;;7.47;;
11344;SDS011;5727;42.600;23.028;2023-02-07T13:45:00;10.63;;;7.73;;
11344;SDS011;5727;42.600;23.028;2023-02-07T13:47:42;8.63;;;7.47;;
11344;SDS011;5727;42.600;23.028;2023-02-07T13:50:22;9.37;;;7.70;;
11344;SDS011;5727;42.600;23.028;2023-02-07T13:53:00;8.50;;;7.57;;
11344;SDS011;5727;42.600;23.028;2023-02-07T13:55:38;10.07;;;8.20;;
11344;SDS011;5727;42.600;23.028;2023-02-07T14:01:24;10.07;;;9.00;;
11344;SDS011;5727;42.600;23.028;2023-02-07T14:03:59;9.90;;;8.17;;
11344;SDS011;5727;42.600;23.028;2023-02-07T14:06:29;11.00;;;8.40;;
11344;SDS011;5727;42.600;23.028;2023-02-07T14:09:00;10.07;;;7.97;;
11344;SDS011;5727;42.600;23.028;2023-02-07T14:11:34;8.67;;;7.73;;
11344;SDS011;5727;42.600;23.028;2023-02-07T14:14:04;11.67;;;8.07;;
11344;SDS011;5727;42.600;23.028;2023-02-07T14:16:43;9.10;;;7.87;;
11344;SDS011;5727;42.600;23.028;2023-02-07T14:19:13;9.83;;;7.47;;
11344;SDS011;5727;42.600;23.028;2023-02-07T14:21:42;8.03;;;7.20;;
11344;SDS011;5727;42.600;23.028;2023-02-07T14:27:01;9.87;;;8.30;;
11344;SDS011;5727;42.600;23.028;2023-02-07T14:32:41;8.57;;;7.77;;
11344;SDS011;5727;42.600;23.028;2023-02-07T14:38:19;8.27;;;7.43;;
11344;SDS011;5727;42.600;23.028;2023-02-07T14:40:53;12.80;;;8.63;;
11344;SDS011;5727;42.600;23.028;2023-02-07T14:43:23;11.07;;;8.53;;
11344;SDS011;5727;42.600;23.028;2023-02-07T14:46:05;10.83;;;8.83;;
11344;SDS011;5727;42.600;23.028;2023-02-07T14:48:36;11.43;;;8.70;;
11344;SDS011;5727;42.600;23.028;2023-02-07T14:51:11;9.03;;;8.17;;
11344;SDS011;5727;42.600;23.028;2023-02-07T14:53:40;9.93;;;8.13;;
11344;SDS011;5727;42.600;23.028;2023-02-07T14:56:15;11.57;;;8.43;;
11344;SDS011;5727;42.600;23.028;2023-02-07T14:58:54;9.83;;;8.83;;
11344;SDS011;5727;42.600;23.028;2023-02-07T15:01:24;11.53;;;8.70;;
11344;SDS011;5727;42.600;23.028;2023-02-07T15:04:00;11.93;;;9.20;;
11344;SDS011;5727;42.600;23.028;2023-02-07T15:06:34;10.40;;;9.07;;
11344;SDS011;5727;42.600;23.028;2023-02-07T15:09:02;11.73;;;9.00;;
11344;SDS011;5727;42.600;23.028;2023-02-07T15:11:31;13.00;;;9.90;;
11344;SDS011;5727;42.600;23.028;2023-02-07T15:13:58;12.17;;;10.27;;
11344;SDS011;5727;42.600;23.028;2023-02-07T15:16:28;14.77;;;10.97;;
11344;SDS011;5727;42.600;23.028;2023-02-07T15:18:56;12.90;;;10.20;;